createdAt,value
2018-10-02T00:02:00.461Z,100.00
2018-10-02T00:04:29.308Z,100.00
2018-10-02T00:06:57.852Z,100.00
2018-10-02T00:09:26.625Z,100.00
2018-10-02T00:12:00.649Z,100.00
2018-10-02T00:14:30.402Z,100.00
2018-10-02T00:16:59.259Z,100.00
2018-10-02T00:19:28.150Z,100.00
2018-10-02T00:21:57.437Z,100.00
2018-10-02T00:24:26.148Z,99.89
2018-10-02T00:26:54.871Z,100.00
2018-10-02T00:29:23.340Z,100.00
2018-10-02T00:31:52.032Z,100.00
2018-10-02T00:34:20.664Z,100.00
2018-10-02T00:36:49.575Z,100.00
2018-10-02T00:39:18.478Z,100.00
2018-10-02T00:41:47.368Z,100.00
2018-10-02T00:44:16.706Z,100.00
2018-10-02T00:46:45.753Z,100.00
2018-10-02T00:49:14.282Z,100.00
2018-10-02T00:51:43.935Z,100.00
2018-10-02T00:54:12.581Z,100.00
2018-10-02T00:56:41.420Z,100.00
2018-10-02T00:59:09.909Z,100.00
2018-10-02T01:01:38.915Z,100.00
2018-10-02T01:04:08.092Z,100.00
2018-10-02T01:06:36.800Z,100.00
2018-10-02T01:09:09.088Z,100.00
2018-10-02T01:11:37.750Z,100.00
2018-10-02T01:14:06.403Z,100.00
2018-10-02T01:16:35.061Z,100.00
2018-10-02T01:19:03.977Z,100.00
2018-10-02T01:21:32.926Z,100.00
2018-10-02T01:24:01.994Z,100.00
2018-10-02T01:26:31.394Z,100.00
2018-10-02T01:28:59.825Z,100.00
2018-10-02T01:31:28.426Z,100.00
2018-10-02T01:33:56.964Z,100.00
2018-10-02T01:36:25.539Z,100.00
2018-10-02T01:38:54.245Z,100.00
2018-10-02T01:41:23.097Z,100.00
2018-10-02T01:43:51.990Z,100.00
2018-10-02T01:46:20.512Z,100.00
2018-10-02T01:48:49.774Z,100.00
2018-10-02T01:51:18.225Z,100.00
2018-10-02T01:53:46.927Z,100.00
2018-10-02T01:56:15.658Z,100.00
2018-10-02T01:58:44.540Z,100.00
2018-10-02T02:01:13.111Z,100.00
2018-10-02T02:03:42.407Z,100.00
2018-10-02T02:06:11.436Z,100.00
2018-10-02T02:08:40.727Z,100.00
2018-10-02T02:11:09.360Z,100.00
2018-10-02T02:13:38.112Z,100.00
2018-10-02T02:16:06.598Z,100.00
2018-10-02T02:18:35.539Z,100.00
2018-10-02T02:21:03.987Z,100.00
2018-10-02T02:23:33.224Z,100.00
2018-10-02T02:26:02.034Z,100.00
2018-10-02T02:28:30.949Z,99.85
2018-10-02T02:31:00.059Z,100.00
2018-10-02T02:33:28.842Z,100.00
2018-10-02T02:35:57.609Z,100.00
2018-10-02T02:38:26.563Z,100.00
2018-10-02T02:40:55.075Z,100.00
2018-10-02T02:43:24.547Z,100.00
2018-10-02T02:45:53.790Z,100.00
2018-10-02T02:48:27.649Z,100.00
2018-10-02T02:51:58.634Z,100.00
2018-10-02T02:54:27.206Z,99.90
2018-10-02T02:56:55.634Z,100.00
2018-10-02T02:59:24.770Z,100.00
2018-10-02T03:01:53.470Z,100.00
2018-10-02T03:04:22.386Z,100.00
2018-10-02T03:06:51.123Z,100.00
2018-10-02T03:09:19.734Z,100.00
2018-10-02T03:11:48.325Z,100.00
2018-10-02T03:14:16.804Z,100.00
2018-10-02T03:16:45.346Z,99.97
2018-10-02T03:19:14.477Z,100.00
2018-10-02T03:21:43.014Z,100.00
2018-10-02T03:24:11.616Z,100.00
2018-10-02T03:26:40.733Z,100.00
2018-10-02T03:29:09.505Z,100.00
2018-10-02T03:31:38.021Z,100.00
2018-10-02T03:34:06.480Z,100.00
2018-10-02T03:36:35.391Z,100.00
2018-10-02T03:39:04.426Z,100.00
2018-10-02T03:41:32.999Z,100.00
2018-10-02T03:44:02.222Z,99.87
2018-10-02T03:46:30.725Z,100.00
2018-10-02T03:48:59.892Z,100.00
2018-10-02T03:51:29.707Z,100.00
2018-10-02T03:53:58.418Z,100.00
2018-10-02T03:56:26.968Z,100.00
2018-10-02T03:58:55.450Z,100.00
2018-10-02T04:01:23.930Z,100.00
2018-10-02T04:03:52.517Z,100.00
2018-10-02T04:06:21.713Z,100.00
2018-10-02T04:08:50.710Z,100.00
2018-10-02T04:11:19.389Z,100.00
2018-10-02T04:13:47.842Z,100.00
2018-10-02T04:16:16.303Z,100.00
2018-10-02T04:18:44.799Z,100.00
2018-10-02T04:21:13.621Z,100.00
2018-10-02T04:23:42.276Z,100.00
2018-10-02T04:26:11.579Z,100.00
2018-10-02T04:28:40.070Z,100.00
2018-10-02T04:31:08.686Z,100.00
2018-10-02T04:33:37.514Z,100.00
2018-10-02T04:36:06.252Z,99.89
2018-10-02T04:38:35.330Z,100.00
2018-10-02T04:41:04.373Z,100.00
2018-10-02T04:43:32.806Z,100.00
2018-10-02T04:46:01.432Z,99.88
2018-10-02T04:48:30.237Z,99.83
2018-10-02T04:50:59.053Z,99.72
2018-10-02T04:53:28.212Z,99.78
2018-10-02T04:55:56.662Z,99.91
2018-10-02T04:58:25.578Z,99.23
2018-10-02T05:00:54.115Z,100.00
2018-10-02T05:03:23.039Z,99.36
2018-10-02T05:05:51.557Z,98.77
2018-10-02T05:08:20.296Z,98.78
2018-10-02T05:10:48.869Z,99.10
2018-10-02T05:13:17.807Z,98.71
2018-10-02T05:15:46.305Z,99.39
2018-10-02T05:18:14.935Z,99.49
2018-10-02T05:20:44.066Z,99.57
2018-10-02T05:23:12.570Z,98.74
2018-10-02T05:25:41.048Z,98.83
2018-10-02T05:28:09.490Z,98.05
2018-10-02T05:30:38.036Z,98.84
2018-10-02T05:33:06.567Z,99.44
2018-10-02T05:35:35.291Z,97.86
2018-10-02T05:38:03.836Z,97.09
2018-10-02T05:40:32.385Z,97.09
2018-10-02T05:43:01.087Z,97.91
2018-10-02T05:45:29.725Z,98.05
2018-10-02T05:47:59.187Z,96.66
2018-10-02T05:50:27.852Z,97.75
2018-10-02T05:52:56.401Z,97.57
2018-10-02T05:55:24.912Z,97.30
2018-10-02T05:57:53.483Z,97.28
2018-10-02T06:00:22.126Z,96.75
2018-10-02T06:02:50.768Z,96.62
2018-10-02T06:05:19.235Z,96.96
2018-10-02T06:07:47.681Z,97.23
2018-10-02T06:10:16.220Z,96.42
2018-10-02T06:12:44.683Z,95.50
2018-10-02T06:15:13.373Z,96.42
2018-10-02T06:17:41.942Z,95.86
2018-10-02T06:20:10.490Z,95.78
2018-10-02T06:22:39.339Z,95.92
2018-10-02T06:25:07.813Z,95.39
2018-10-02T06:27:36.327Z,96.02
2018-10-02T06:30:05.368Z,95.21
2018-10-02T06:32:34.045Z,95.20
2018-10-02T06:35:02.576Z,95.75
2018-10-02T06:37:31.508Z,95.52
2018-10-02T06:40:00.012Z,95.20
2018-10-02T06:42:28.601Z,94.89
2018-10-02T06:44:57.121Z,95.51
2018-10-02T06:47:25.741Z,94.42
2018-10-02T06:49:54.297Z,94.27
2018-10-02T06:52:23.057Z,94.00
2018-10-02T06:54:51.322Z,95.42
2018-10-02T06:57:19.866Z,93.56
2018-10-02T06:59:48.283Z,93.49
2018-10-02T07:02:16.870Z,94.56
2018-10-02T07:04:45.971Z,94.28
2018-10-02T07:07:14.423Z,94.78
2018-10-02T07:09:44.211Z,95.06
2018-10-02T07:12:12.886Z,94.79
2018-10-02T07:14:41.864Z,94.73
2018-10-02T07:17:10.449Z,94.60
2018-10-02T07:19:39.411Z,94.99
2018-10-02T07:22:08.102Z,94.62
2018-10-02T07:24:37.148Z,95.61
2018-10-02T07:27:06.170Z,94.78
2018-10-02T07:29:34.625Z,96.08
2018-10-02T07:32:03.355Z,96.66
2018-10-02T07:34:32.365Z,96.78
2018-10-02T07:37:01.007Z,97.06
2018-10-02T07:39:29.420Z,96.66
2018-10-02T07:41:57.976Z,97.90
2018-10-02T07:44:26.440Z,97.70
2018-10-02T07:46:54.898Z,97.23
2018-10-02T07:49:23.335Z,98.03
2018-10-02T07:51:51.919Z,97.88
2018-10-02T07:54:20.422Z,97.79
2018-10-02T07:56:49.072Z,99.03
2018-10-02T07:59:17.541Z,98.10
2018-10-02T08:01:46.185Z,99.74
2018-10-02T08:04:14.873Z,98.85
2018-10-02T08:06:43.367Z,97.65
2018-10-02T08:09:13.034Z,97.48
2018-10-02T08:11:41.696Z,96.77
2018-10-02T08:14:10.216Z,98.56
2018-10-02T08:16:40.008Z,98.43
2018-10-02T08:19:08.513Z,97.64
2018-10-02T08:21:36.988Z,97.26
2018-10-02T08:24:05.543Z,96.11
2018-10-02T08:26:34.024Z,97.94
2018-10-02T08:29:02.529Z,97.00
2018-10-02T08:31:31.284Z,97.52
2018-10-02T08:34:00.220Z,98.83
2018-10-02T08:36:28.974Z,97.86
2018-10-02T08:38:57.589Z,97.29
2018-10-02T08:41:26.101Z,97.56
2018-10-02T08:44:01.118Z,97.31
2018-10-02T08:46:29.839Z,97.14
2018-10-02T08:48:59.099Z,95.89
2018-10-02T08:51:27.693Z,95.08
2018-10-02T08:53:56.252Z,95.14
2018-10-02T08:56:24.682Z,95.43
2018-10-02T08:58:53.161Z,94.78
2018-10-02T09:01:21.672Z,93.93
2018-10-02T09:03:50.220Z,94.33
2018-10-02T09:06:19.322Z,94.66
2018-10-02T09:08:47.749Z,94.90
2018-10-02T09:11:16.423Z,96.28
2018-10-02T09:13:45.030Z,94.17
2018-10-02T09:16:13.744Z,95.19
2018-10-02T09:18:42.382Z,94.25
2018-10-02T09:21:11.704Z,94.32
2018-10-02T09:23:40.761Z,93.31
2018-10-02T09:26:09.363Z,93.31
2018-10-02T09:28:37.918Z,92.55
2018-10-02T09:31:11.745Z,93.13
2018-10-02T09:33:45.606Z,93.28
2018-10-02T09:36:19.442Z,93.44
2018-10-02T09:38:53.128Z,92.77
2018-10-02T09:43:33.452Z,92.16
2018-10-02T09:46:02.717Z,91.10
2018-10-02T09:48:31.167Z,91.26
2018-10-02T09:50:59.816Z,92.15
2018-10-02T09:53:28.303Z,91.51
2018-10-02T09:55:56.966Z,92.57
2018-10-02T09:58:25.454Z,92.36
2018-10-02T10:00:59.350Z,94.04
2018-10-02T10:03:27.834Z,94.05
2018-10-02T10:05:56.392Z,94.39
2018-10-02T10:08:24.844Z,95.26
2018-10-02T10:10:53.473Z,94.95
2018-10-02T10:13:21.906Z,94.10
2018-10-02T10:15:50.475Z,94.54
2018-10-02T10:18:19.566Z,94.50
2018-10-02T10:20:48.908Z,95.26
2018-10-02T10:23:17.423Z,94.97
2018-10-02T10:25:45.922Z,94.46
2018-10-02T10:28:14.417Z,95.67
2018-10-02T10:30:42.842Z,94.00
2018-10-02T10:33:11.687Z,94.32
2018-10-02T10:35:40.309Z,94.18
2018-10-02T10:38:08.887Z,94.61
2018-10-02T10:40:37.752Z,93.36
2018-10-02T10:43:06.361Z,94.19
2018-10-02T10:45:35.305Z,92.70
2018-10-02T10:48:04.255Z,92.73
2018-10-02T10:50:32.933Z,93.80
2018-10-02T10:53:01.574Z,92.60
2018-10-02T10:55:35.843Z,93.18
2018-10-02T10:58:05.341Z,92.94
2018-10-02T11:00:34.051Z,94.12
2018-10-02T11:03:02.865Z,93.32
2018-10-02T11:05:31.399Z,92.67
2018-10-02T11:08:00.310Z,93.52
2018-10-02T11:10:29.099Z,93.47
2018-10-02T11:12:57.666Z,93.35
2018-10-02T11:15:28.663Z,94.17
2018-10-02T11:17:57.532Z,94.57
2018-10-02T11:20:29.080Z,93.58
2018-10-02T11:22:57.777Z,92.79
2018-10-02T11:25:26.854Z,93.21
2018-10-02T11:27:56.244Z,94.73
2018-10-02T11:30:25.013Z,94.64
2018-10-02T11:32:54.641Z,94.12
2018-10-02T11:35:23.686Z,93.96
2018-10-02T11:37:52.481Z,94.71
2018-10-02T11:40:21.005Z,94.71
2018-10-02T11:42:50.359Z,95.82
2018-10-02T11:45:19.161Z,94.46
2018-10-02T11:47:48.542Z,95.36
2018-10-02T11:50:17.240Z,94.43
2018-10-02T11:52:46.118Z,94.47
2018-10-02T11:55:14.865Z,94.28
2018-10-02T11:57:43.519Z,92.67
2018-10-02T12:00:12.137Z,92.57
2018-10-02T12:02:40.702Z,92.91
2018-10-02T12:05:09.348Z,91.75
2018-10-02T12:07:37.987Z,91.78
2018-10-02T12:10:06.780Z,91.58
2018-10-02T12:12:35.362Z,93.54
2018-10-02T12:15:04.073Z,92.76
2018-10-02T12:17:32.929Z,91.81
2018-10-02T12:20:01.695Z,91.38
2018-10-02T12:22:30.292Z,90.68
2018-10-02T12:24:59.036Z,91.14
2018-10-02T12:27:27.786Z,90.90
2018-10-02T12:29:56.666Z,91.38
2018-10-02T12:32:25.464Z,90.42
2018-10-02T12:34:53.978Z,91.28
2018-10-02T12:37:22.730Z,91.72
2018-10-02T12:39:51.371Z,90.30
2018-10-02T12:42:20.104Z,91.29
2018-10-02T12:44:48.815Z,92.21
2018-10-02T12:47:17.514Z,91.76
2018-10-02T12:49:46.362Z,92.09
2018-10-02T12:52:15.382Z,91.57
2018-10-02T12:54:44.192Z,91.84
2018-10-02T12:57:13.165Z,92.47
2018-10-02T12:59:42.049Z,92.19
2018-10-02T13:02:10.810Z,92.40
2018-10-02T13:04:39.357Z,93.33
2018-10-02T13:07:08.248Z,93.51
2018-10-02T13:09:36.868Z,93.77
2018-10-02T13:12:05.579Z,94.53
2018-10-02T13:14:34.593Z,94.35
2018-10-02T13:17:04.382Z,96.03
2018-10-02T13:19:34.247Z,95.49
2018-10-02T13:22:02.981Z,96.32
2018-10-02T13:24:31.607Z,96.42
2018-10-02T13:27:00.757Z,96.50
2018-10-02T13:29:29.299Z,96.91
2018-10-02T13:31:57.954Z,96.84
2018-10-02T13:36:54.394Z,97.02
2018-10-02T13:39:23.107Z,97.10
2018-10-02T13:41:51.810Z,98.59
2018-10-02T13:44:20.485Z,97.43
2018-10-02T13:46:50.395Z,99.43
2018-10-02T13:49:19.256Z,100.00
2018-10-02T13:51:47.975Z,100.00
2018-10-02T13:54:16.707Z,100.00
2018-10-02T13:56:45.370Z,100.00
2018-10-02T13:59:13.977Z,100.00
2018-10-02T14:01:42.517Z,100.00
2018-10-02T14:04:11.138Z,100.00
2018-10-02T14:06:39.685Z,100.00
2018-10-02T14:09:08.864Z,100.00
2018-10-02T14:11:37.889Z,100.00
2018-10-02T14:14:06.327Z,100.00
2018-10-02T14:16:34.903Z,100.00
2018-10-02T14:19:03.551Z,100.00
2018-10-02T14:21:31.927Z,100.00
2018-10-02T14:24:00.540Z,100.00
2018-10-02T14:26:29.124Z,100.00
2018-10-02T14:28:57.638Z,100.00
2018-10-02T14:31:26.120Z,100.00
2018-10-02T14:33:54.668Z,100.00
2018-10-02T14:36:23.190Z,100.00
2018-10-02T14:38:52.143Z,100.00
2018-10-02T14:41:20.579Z,100.00
2018-10-02T14:43:49.036Z,100.00
2018-10-02T14:46:17.590Z,100.00
2018-10-02T14:48:46.090Z,100.00
2018-10-02T14:51:15.299Z,100.00
2018-10-02T14:53:44.045Z,100.00
2018-10-02T14:56:43.854Z,100.00
2018-10-02T14:59:12.785Z,100.00
2018-10-02T15:01:41.391Z,100.00
2018-10-02T15:04:09.843Z,100.00
2018-10-02T15:06:38.382Z,100.00
2018-10-02T15:09:08.097Z,100.00
2018-10-02T15:11:36.881Z,100.00
2018-10-02T15:14:05.523Z,100.00
2018-10-02T15:16:35.165Z,100.00
2018-10-02T15:19:03.619Z,100.00
2018-10-02T15:21:32.384Z,100.00
2018-10-02T15:24:00.872Z,100.00
2018-10-02T15:26:29.438Z,100.00
2018-10-02T15:28:58.381Z,100.00
2018-10-02T15:31:26.877Z,100.00
2018-10-02T15:33:55.288Z,100.00
2018-10-02T15:36:25.898Z,100.00
2018-10-02T15:38:55.279Z,100.00
2018-10-02T15:41:25.289Z,100.00
2018-10-02T15:43:55.257Z,100.00
2018-10-02T15:46:26.084Z,100.00
2018-10-02T15:48:54.810Z,100.00
2018-10-02T15:51:24.623Z,100.00
2018-10-02T15:53:53.469Z,100.00
2018-10-02T15:56:23.338Z,100.00
2018-10-02T15:58:52.235Z,100.00
2018-10-02T16:01:21.331Z,100.00
2018-10-02T16:03:53.654Z,100.00
2018-10-02T16:06:23.487Z,100.00
2018-10-02T16:08:55.338Z,100.00
2018-10-02T16:11:28.884Z,100.00
2018-10-02T16:13:58.206Z,100.00
2018-10-02T16:16:27.201Z,100.00
2018-10-02T16:18:56.041Z,100.00
2018-10-02T16:21:25.043Z,100.00
2018-10-02T16:23:53.722Z,100.00
2018-10-02T16:26:23.193Z,100.00
2018-10-02T16:28:52.867Z,100.00
2018-10-02T16:31:21.637Z,100.00
2018-10-02T16:33:50.419Z,100.00
2018-10-02T16:36:25.125Z,100.00
2018-10-02T16:38:59.530Z,100.00
2018-10-02T16:41:29.497Z,100.00
2018-10-02T16:44:01.380Z,100.00
2018-10-02T16:46:31.697Z,100.00
2018-10-02T16:49:00.929Z,100.00
2018-10-02T16:51:30.216Z,100.00
2018-10-02T16:53:59.349Z,100.00
2018-10-02T16:56:29.219Z,100.00
2018-10-02T16:58:58.093Z,100.00
2018-10-02T17:01:27.113Z,100.00
2018-10-02T17:03:55.891Z,100.00
2018-10-02T17:06:26.705Z,100.00
2018-10-02T17:08:57.130Z,100.00
2018-10-02T17:11:26.119Z,100.00
2018-10-02T17:13:55.843Z,100.00
2018-10-02T17:16:24.352Z,100.00
2018-10-02T17:18:53.007Z,100.00
2018-10-02T17:21:21.912Z,100.00
2018-10-02T17:23:50.461Z,100.00
2018-10-02T17:26:19.219Z,100.00
2018-10-02T17:28:48.389Z,100.00
2018-10-02T17:31:17.481Z,100.00
2018-10-02T17:33:46.678Z,100.00
2018-10-02T17:36:16.499Z,100.00
2018-10-02T17:38:45.783Z,100.00
2018-10-02T17:41:14.939Z,100.00
2018-10-02T17:43:45.915Z,100.00
2018-10-02T17:46:16.589Z,100.00
2018-10-02T17:48:46.354Z,100.00
2018-10-02T17:51:15.476Z,100.00
2018-10-02T17:53:44.213Z,100.00
2018-10-02T17:56:13.178Z,100.00
2018-10-02T17:58:44.233Z,100.00
2018-10-02T18:01:13.777Z,100.00
2018-10-02T18:03:42.876Z,100.00
2018-10-02T18:06:14.576Z,100.00
2018-10-02T18:08:43.479Z,100.00
2018-10-02T18:11:12.451Z,100.00
2018-10-02T18:13:42.135Z,100.00
2018-10-02T18:16:10.843Z,100.00
2018-10-02T18:18:42.272Z,100.00
2018-10-02T18:21:11.101Z,100.00
2018-10-02T18:23:41.275Z,100.00
2018-10-02T18:26:10.571Z,100.00
2018-10-02T18:28:39.470Z,100.00
2018-10-02T18:31:08.507Z,100.00
2018-10-02T18:33:40.149Z,100.00
2018-10-02T18:36:31.292Z,100.00
2018-10-02T18:39:01.380Z,100.00
2018-10-02T18:41:38.037Z,100.00
2018-10-02T18:44:15.615Z,100.00
2018-10-02T18:46:55.924Z,100.00
2018-10-02T18:49:33.888Z,100.00
2018-10-02T18:52:04.469Z,100.00
2018-10-02T18:54:34.551Z,100.00
2018-10-02T18:57:03.735Z,100.00
2018-10-02T18:59:32.422Z,100.00
2018-10-02T19:02:01.466Z,100.00
2018-10-02T19:04:30.123Z,100.00
2018-10-02T19:06:59.233Z,100.00
2018-10-02T19:09:27.888Z,100.00
2018-10-02T19:12:01.984Z,100.00
2018-10-02T19:14:30.776Z,100.00
2018-10-02T19:16:59.576Z,100.00
2018-10-02T19:19:33.226Z,100.00
2018-10-02T19:22:02.193Z,100.00
2018-10-02T19:24:30.791Z,100.00
2018-10-02T19:26:59.454Z,100.00
2018-10-02T19:29:28.290Z,100.00
2018-10-02T19:32:00.719Z,100.00
2018-10-02T19:34:29.527Z,100.00
2018-10-02T19:36:58.281Z,100.00
2018-10-02T19:39:28.562Z,100.00
2018-10-02T19:41:58.729Z,100.00
2018-10-02T19:44:27.824Z,100.00
2018-10-02T19:47:00.209Z,100.00
2018-10-02T19:49:34.015Z,100.00
2018-10-02T19:52:09.803Z,100.00
2018-10-02T19:54:38.516Z,100.00
2018-10-02T19:57:08.363Z,100.00
2018-10-02T19:59:37.089Z,100.00
2018-10-02T20:02:05.621Z,100.00
2018-10-02T20:04:34.537Z,100.00
2018-10-02T20:07:03.734Z,100.00
2018-10-02T20:09:32.313Z,100.00
2018-10-02T20:12:01.391Z,100.00
2018-10-02T20:14:30.288Z,100.00
2018-10-02T20:16:58.975Z,100.00
2018-10-02T20:19:28.672Z,100.00
2018-10-02T20:21:57.300Z,100.00
2018-10-02T20:24:26.625Z,100.00
2018-10-02T20:26:55.238Z,100.00
2018-10-02T20:29:23.775Z,100.00
2018-10-02T20:31:53.010Z,100.00
2018-10-02T20:34:21.708Z,100.00
2018-10-02T20:36:50.212Z,100.00
2018-10-02T20:39:19.563Z,100.00
2018-10-02T20:41:48.049Z,100.00
2018-10-02T20:44:16.470Z,100.00
2018-10-02T20:46:45.395Z,100.00
2018-10-02T20:49:13.881Z,99.88
2018-10-02T20:51:43.267Z,99.56
2018-10-02T20:54:11.918Z,98.35
2018-10-02T20:56:40.930Z,97.98
2018-10-02T20:59:09.673Z,97.56
2018-10-02T21:01:38.133Z,97.38
2018-10-02T21:04:06.763Z,95.88
2018-10-02T21:06:36.294Z,94.75
2018-10-02T21:09:06.543Z,95.85
2018-10-02T21:11:34.922Z,95.34
2018-10-02T21:14:03.374Z,93.96
2018-10-02T21:16:32.148Z,93.47
2018-10-02T21:19:00.636Z,93.94
2018-10-02T21:21:29.042Z,93.34
2018-10-02T21:23:58.211Z,92.35
2018-10-02T21:26:26.867Z,92.24
2018-10-02T21:28:55.368Z,91.75
2018-10-02T21:31:23.734Z,91.87
2018-10-02T21:33:52.365Z,92.57
2018-10-02T21:36:20.722Z,92.82
2018-10-02T21:38:50.554Z,93.23
2018-10-02T21:41:19.961Z,93.05
2018-10-02T21:43:48.488Z,93.14
2018-10-02T21:46:17.145Z,92.60
2018-10-02T21:48:45.925Z,92.61
2018-10-02T21:51:14.667Z,91.68
2018-10-02T21:53:43.409Z,91.19
2018-10-02T21:56:12.114Z,90.32
2018-10-02T21:58:40.931Z,90.34
2018-10-02T22:01:09.308Z,90.74
2018-10-02T22:03:39.324Z,90.04
2018-10-02T22:06:08.110Z,91.05
2018-10-02T22:08:36.578Z,89.55
2018-10-02T22:11:05.379Z,90.12
2018-10-02T22:13:33.737Z,89.30
2018-10-02T22:16:02.121Z,90.41
2018-10-02T22:18:30.491Z,90.20
2018-10-02T22:20:58.856Z,90.49
2018-10-02T22:23:27.350Z,90.41
2018-10-02T22:25:55.752Z,89.98
2018-10-02T22:28:24.126Z,91.11
2018-10-02T22:30:52.997Z,91.19
2018-10-02T22:33:21.470Z,90.95
2018-10-02T22:35:49.872Z,91.24
2018-10-02T22:38:18.586Z,89.95
2018-10-02T22:40:46.997Z,90.66
2018-10-02T22:43:15.777Z,90.57
2018-10-02T22:45:44.591Z,89.44
2018-10-02T22:48:12.942Z,88.63
2018-10-02T22:50:41.360Z,88.19
2018-10-02T22:53:09.739Z,87.55
2018-10-02T22:55:38.088Z,87.52
2018-10-02T22:58:06.892Z,86.47
2018-10-02T23:00:35.282Z,86.79
2018-10-02T23:03:03.712Z,86.89
2018-10-02T23:05:32.125Z,87.30
2018-10-02T23:08:00.483Z,87.33
2018-10-02T23:10:28.817Z,87.87
2018-10-02T23:12:57.253Z,87.63
2018-10-02T23:15:25.592Z,87.99
2018-10-02T23:17:53.903Z,89.39
2018-10-02T23:20:22.351Z,87.85
2018-10-02T23:22:51.245Z,88.45
2018-10-02T23:25:20.190Z,88.78
2018-10-02T23:27:48.677Z,89.65
2018-10-02T23:30:17.703Z,88.02
2018-10-02T23:32:46.097Z,88.61
2018-10-02T23:35:14.462Z,88.47
2018-10-02T23:37:43.225Z,88.36
2018-10-02T23:40:12.051Z,88.96
2018-10-02T23:42:40.981Z,89.80
2018-10-02T23:45:09.953Z,88.13
2018-10-02T23:47:38.354Z,88.68
2018-10-02T23:50:06.742Z,88.59
2018-10-02T23:52:35.090Z,88.91
2018-10-02T23:55:03.466Z,89.00
2018-10-02T23:57:31.881Z,88.54
